sensor_id;sensor_type;location;lat;lon;timestamp;pressure;altitude;pressure_sealevel;temperature;humidity
73422;BME280;61637;47.760;-122.022;2023-03-14T00:00:01;100914.42199999999;;;6.2;unknown
73422;BME280;61637;47.760;-122.022;2023-03-14T00:02:01;100914.42199999999;;;6.2;unknown
73422;BME280;61637;47.760;-122.022;2023-03-14T00:04:01;100914.42199999999;;;6.2;unknown
73422;BME280;61637;47.760;-122.022;2023-03-14T00:06:01;100914.42199999999;;;6.2;unknown
73422;BME280;61637;47.760;-122.022;2023-03-14T00:08:01;100914.42199999999;;;6.3;unknown
73422;BME280;61637;47.760;-122.022;2023-03-14T00:10:02;100914.42199999999;;;6.3;unknown
73422;BME280;61637;47.760;-122.022;2023-03-14T00:12:01;100914.42199999999;;;6.3;unknown
73422;BME280;61637;47.760;-122.022;2023-03-14T00:14:01;100914.42199999999;;;6.3;unknown
73422;BME280;61637;47.760;-122.022;2023-03-14T00:16:02;100914.42199999999;;;6.2;unknown
73422;BME280;61637;47.760;-122.022;2023-03-14T00:18:01;100914.42199999999;;;6.2;unknown
73422;BME280;61637;47.760;-122.022;2023-03-14T00:20:01;100914.42199999999;;;6.2;unknown
73422;BME280;61637;47.760;-122.022;2023-03-14T00:22:01;100914.42199999999;;;6.1;unknown
73422;BME280;61637;47.760;-122.022;2023-03-14T00:24:01;100914.42199999999;;;6.1;unknown
73422;BME280;61637;47.760;-122.022;2023-03-14T00:26:01;100914.42199999999;;;6.1;unknown
73422;BME280;61637;47.760;-122.022;2023-03-14T00:28:01;100914.42199999999;;;6.1;unknown
73422;BME280;61637;47.760;-122.022;2023-03-14T00:30:01;100914.42199999999;;;6.0;unknown
73422;BME280;61637;47.760;-122.022;2023-03-14T00:32:01;100914.42199999999;;;5.9;unknown
73422;BME280;61637;47.760;-122.022;2023-03-14T00:34:01;100914.42199999999;;;5.9;unknown
73422;BME280;61637;47.760;-122.022;2023-03-14T00:36:02;100914.42199999999;;;5.9;unknown
73422;BME280;61637;47.760;-122.022;2023-03-14T00:38:01;100914.42199999999;;;5.9;unknown
73422;BME280;61637;47.760;-122.022;2023-03-14T00:40:01;100914.42199999999;;;5.8;unknown
73422;BME280;61637;47.760;-122.022;2023-03-14T00:42:01;100914.42199999999;;;5.8;unknown
73422;BME280;61637;47.760;-122.022;2023-03-14T00:44:01;100914.42199999999;;;5.8;unknown
73422;BME280;61637;47.760;-122.022;2023-03-14T00:46:01;100914.42199999999;;;5.8;unknown
73422;BME280;61637;47.760;-122.022;2023-03-14T00:48:01;100914.42199999999;;;5.7;unknown
73422;BME280;61637;47.760;-122.022;2023-03-14T00:50:01;100914.42199999999;;;5.7;unknown
73422;BME280;61637;47.760;-122.022;2023-03-14T00:52:01;100914.42199999999;;;5.7;unknown
73422;BME280;61637;47.760;-122.022;2023-03-14T00:54:01;100914.42199999999;;;5.7;unknown
73422;BME280;61637;47.760;-122.022;2023-03-14T00:56:02;100914.42199999999;;;5.7;unknown
73422;BME280;61637;47.760;-122.022;2023-03-14T00:58:01;100914.42199999999;;;5.7;unknown
73422;BME280;61637;47.760;-122.022;2023-03-14T01:00:01;100914.42199999999;;;5.7;unknown
73422;BME280;61637;47.760;-122.022;2023-03-14T01:02:01;100914.42199999999;;;5.6;unknown
73422;BME280;61637;47.760;-122.022;2023-03-14T01:04:01;100914.42199999999;;;5.6;unknown
73422;BME280;61637;47.760;-122.022;2023-03-14T01:06:09;100914.42199999999;;;5.6;unknown
73422;BME280;61637;47.760;-122.022;2023-03-14T01:08:01;100914.42199999999;;;5.6;unknown
73422;BME280;61637;47.760;-122.022;2023-03-14T01:10:01;100914.42199999999;;;5.6;unknown
73422;BME280;61637;47.760;-122.022;2023-03-14T01:12:01;100914.42199999999;;;5.6;unknown
73422;BME280;61637;47.760;-122.022;2023-03-14T01:14:01;100914.42199999999;;;5.6;unknown
73422;BME280;61637;47.760;-122.022;2023-03-14T01:16:01;100914.42199999999;;;5.6;unknown
73422;BME280;61637;47.760;-122.022;2023-03-14T01:18:01;100914.42199999999;;;5.6;unknown
73422;BME280;61637;47.760;-122.022;2023-03-14T01:20:01;100914.42199999999;;;5.6;unknown
73422;BME280;61637;47.760;-122.022;2023-03-14T01:22:01;100914.42199999999;;;5.6;unknown
73422;BME280;61637;47.760;-122.022;2023-03-14T01:24:02;100914.42199999999;;;5.5;unknown
73422;BME280;61637;47.760;-122.022;2023-03-14T01:26:01;100914.42199999999;;;5.5;unknown
73422;BME280;61637;47.760;-122.022;2023-03-14T01:28:01;100914.42199999999;;;5.5;unknown
73422;BME280;61637;47.760;-122.022;2023-03-14T01:30:01;100914.42199999999;;;5.5;unknown
73422;BME280;61637;47.760;-122.022;2023-03-14T01:32:01;100914.42199999999;;;5.5;unknown
73422;BME280;61637;47.760;-122.022;2023-03-14T01:34:01;100914.42199999999;;;5.5;unknown
73422;BME280;61637;47.760;-122.022;2023-03-14T01:36:01;100914.42199999999;;;5.4;unknown
73422;BME280;61637;47.760;-122.022;2023-03-14T01:38:01;100914.42199999999;;;5.4;unknown
73422;BME280;61637;47.760;-122.022;2023-03-14T01:40:01;100914.42199999999;;;5.4;unknown
73422;BME280;61637;47.760;-122.022;2023-03-14T01:42:01;100914.42199999999;;;5.3;unknown
73422;BME280;61637;47.760;-122.022;2023-03-14T01:44:01;100914.42199999999;;;5.3;unknown
73422;BME280;61637;47.760;-122.022;2023-03-14T01:48:01;100914.42199999999;;;5.3;unknown
73422;BME280;61637;47.760;-122.022;2023-03-14T01:50:02;100914.42199999999;;;5.3;unknown
73422;BME280;61637;47.760;-122.022;2023-03-14T01:52:02;100914.42199999999;;;5.2;unknown
73422;BME280;61637;47.760;-122.022;2023-03-14T01:54:03;100914.42199999999;;;5.2;unknown
73422;BME280;61637;47.760;-122.022;2023-03-14T01:56:01;100914.42199999999;;;5.1;unknown
73422;BME280;61637;47.760;-122.022;2023-03-14T01:58:02;100914.42199999999;;;5.1;unknown
73422;BME280;61637;47.760;-122.022;2023-03-14T02:00:03;100914.42199999999;;;5.0;unknown
73422;BME280;61637;47.760;-122.022;2023-03-14T02:02:01;100914.42199999999;;;4.9;unknown
73422;BME280;61637;47.760;-122.022;2023-03-14T02:04:01;100914.42199999999;;;4.9;unknown
73422;BME280;61637;47.760;-122.022;2023-03-14T02:06:03;100914.42199999999;;;4.8;unknown
73422;BME280;61637;47.760;-122.022;2023-03-14T02:08:01;100914.42199999999;;;4.8;unknown
73422;BME280;61637;47.760;-122.022;2023-03-14T02:10:01;100914.42199999999;;;4.8;unknown
73422;BME280;61637;47.760;-122.022;2023-03-14T02:12:01;100914.42199999999;;;4.7;unknown
73422;BME280;61637;47.760;-122.022;2023-03-14T02:14:01;100914.42199999999;;;4.6;unknown
73422;BME280;61637;47.760;-122.022;2023-03-14T02:16:01;100914.42199999999;;;4.6;unknown
73422;BME280;61637;47.760;-122.022;2023-03-14T02:18:01;100914.42199999999;;;4.6;unknown
73422;BME280;61637;47.760;-122.022;2023-03-14T02:20:05;100914.42199999999;;;4.5;unknown
73422;BME280;61637;47.760;-122.022;2023-03-14T02:22:03;100914.42199999999;;;4.4;unknown
73422;BME280;61637;47.760;-122.022;2023-03-14T02:24:04;100914.42199999999;;;4.4;unknown
73422;BME280;61637;47.760;-122.022;2023-03-14T02:26:02;100914.42199999999;;;4.4;unknown
73422;BME280;61637;47.760;-122.022;2023-03-14T02:28:01;100914.42199999999;;;4.4;unknown
73422;BME280;61637;47.760;-122.022;2023-03-14T02:30:02;100914.42199999999;;;4.3;unknown
73422;BME280;61637;47.760;-122.022;2023-03-14T02:32:01;100914.42199999999;;;4.3;unknown
73422;BME280;61637;47.760;-122.022;2023-03-14T02:34:01;100914.42199999999;;;4.3;unknown
73422;BME280;61637;47.760;-122.022;2023-03-14T02:36:02;100914.42199999999;;;4.3;unknown
73422;BME280;61637;47.760;-122.022;2023-03-14T02:38:02;100914.42199999999;;;4.2;unknown
73422;BME280;61637;47.760;-122.022;2023-03-14T02:40:01;100914.42199999999;;;4.3;unknown
73422;BME280;61637;47.760;-122.022;2023-03-14T02:42:01;100914.42199999999;;;4.3;unknown
73422;BME280;61637;47.760;-122.022;2023-03-14T02:44:01;100914.42199999999;;;4.3;unknown
73422;BME280;61637;47.760;-122.022;2023-03-14T02:46:01;100914.42199999999;;;4.3;unknown
73422;BME280;61637;47.760;-122.022;2023-03-14T02:48:02;100914.42199999999;;;4.3;unknown
73422;BME280;61637;47.760;-122.022;2023-03-14T02:50:02;100914.42199999999;;;4.4;unknown
73422;BME280;61637;47.760;-122.022;2023-03-14T02:52:01;100914.42199999999;;;4.3;unknown
73422;BME280;61637;47.760;-122.022;2023-03-14T02:54:01;100914.42199999999;;;4.3;unknown
73422;BME280;61637;47.760;-122.022;2023-03-14T02:56:01;100914.42199999999;;;4.3;unknown
73422;BME280;61637;47.760;-122.022;2023-03-14T02:58:01;100914.42199999999;;;4.3;unknown
73422;BME280;61637;47.760;-122.022;2023-03-14T03:00:01;100914.42199999999;;;4.4;unknown
73422;BME280;61637;47.760;-122.022;2023-03-14T03:02:01;100914.42199999999;;;4.4;unknown
73422;BME280;61637;47.760;-122.022;2023-03-14T03:04:01;100914.42199999999;;;4.4;unknown
73422;BME280;61637;47.760;-122.022;2023-03-14T03:06:01;100914.42199999999;;;4.3;unknown
73422;BME280;61637;47.760;-122.022;2023-03-14T03:08:01;100914.42199999999;;;4.3;unknown
73422;BME280;61637;47.760;-122.022;2023-03-14T03:10:01;100914.42199999999;;;4.2;unknown
73422;BME280;61637;47.760;-122.022;2023-03-14T03:12:01;100914.42199999999;;;4.2;unknown
73422;BME280;61637;47.760;-122.022;2023-03-14T03:14:01;100914.42199999999;;;4.2;unknown
73422;BME280;61637;47.760;-122.022;2023-03-14T03:16:01;100914.42199999999;;;4.1;unknown
73422;BME280;61637;47.760;-122.022;2023-03-14T03:18:01;100914.42199999999;;;4.0;unknown
73422;BME280;61637;47.760;-122.022;2023-03-14T03:20:01;100914.42199999999;;;4.0;unknown
73422;BME280;61637;47.760;-122.022;2023-03-14T03:22:01;100914.42199999999;;;3.9;unknown
73422;BME280;61637;47.760;-122.022;2023-03-14T03:24:01;100914.42199999999;;;3.9;unknown
73422;BME280;61637;47.760;-122.022;2023-03-14T03:26:01;100914.42199999999;;;3.9;unknown
73422;BME280;61637;47.760;-122.022;2023-03-14T03:28:01;100914.42199999999;;;3.9;unknown
73422;BME280;61637;47.760;-122.022;2023-03-14T03:30:01;100914.42199999999;;;3.8;unknown
73422;BME280;61637;47.760;-122.022;2023-03-14T03:32:01;100914.42199999999;;;3.8;unknown
73422;BME280;61637;47.760;-122.022;2023-03-14T03:34:01;100914.42199999999;;;3.8;unknown
73422;BME280;61637;47.760;-122.022;2023-03-14T03:36:01;100914.42199999999;;;3.7;unknown
73422;BME280;61637;47.760;-122.022;2023-03-14T03:38:01;100914.42199999999;;;3.7;unknown
73422;BME280;61637;47.760;-122.022;2023-03-14T03:40:01;100914.42199999999;;;3.7;unknown
73422;BME280;61637;47.760;-122.022;2023-03-14T03:42:01;100914.42199999999;;;3.6;unknown
73422;BME280;61637;47.760;-122.022;2023-03-14T03:44:01;100914.42199999999;;;3.6;unknown
73422;BME280;61637;47.760;-122.022;2023-03-14T03:46:02;100914.42199999999;;;3.5;unknown
73422;BME280;61637;47.760;-122.022;2023-03-14T03:48:01;100914.42199999999;;;3.4;unknown
73422;BME280;61637;47.760;-122.022;2023-03-14T03:50:01;100914.42199999999;;;3.4;unknown
73422;BME280;61637;47.760;-122.022;2023-03-14T03:52:01;100914.42199999999;;;3.5;unknown
73422;BME280;61637;47.760;-122.022;2023-03-14T03:54:01;100914.42199999999;;;3.5;unknown
73422;BME280;61637;47.760;-122.022;2023-03-14T03:56:01;100914.42199999999;;;3.5;unknown
73422;BME280;61637;47.760;-122.022;2023-03-14T03:58:01;100914.42199999999;;;3.4;unknown
73422;BME280;61637;47.760;-122.022;2023-03-14T04:00:01;100914.42199999999;;;3.4;unknown
73422;BME280;61637;47.760;-122.022;2023-03-14T04:02:01;100914.42199999999;;;3.4;unknown
73422;BME280;61637;47.760;-122.022;2023-03-14T04:04:01;100914.42199999999;;;3.4;unknown
73422;BME280;61637;47.760;-122.022;2023-03-14T04:06:01;100914.42199999999;;;3.3;unknown
73422;BME280;61637;47.760;-122.022;2023-03-14T04:08:01;100914.42199999999;;;3.4;unknown
73422;BME280;61637;47.760;-122.022;2023-03-14T04:10:01;100914.42199999999;;;3.4;unknown
73422;BME280;61637;47.760;-122.022;2023-03-14T04:12:01;100914.42199999999;;;3.4;unknown
73422;BME280;61637;47.760;-122.022;2023-03-14T04:14:01;100914.42199999999;;;3.4;unknown
73422;BME280;61637;47.760;-122.022;2023-03-14T04:16:01;100914.42199999999;;;3.3;unknown
73422;BME280;61637;47.760;-122.022;2023-03-14T04:18:01;100914.42199999999;;;3.3;unknown
73422;BME280;61637;47.760;-122.022;2023-03-14T04:20:01;100914.42199999999;;;3.2;unknown
73422;BME280;61637;47.760;-122.022;2023-03-14T04:22:01;100914.42199999999;;;3.2;unknown
73422;BME280;61637;47.760;-122.022;2023-03-14T04:24:01;100914.42199999999;;;3.2;unknown
73422;BME280;61637;47.760;-122.022;2023-03-14T04:26:01;100914.42199999999;;;3.2;unknown
73422;BME280;61637;47.760;-122.022;2023-03-14T04:28:01;100914.42199999999;;;3.2;unknown
73422;BME280;61637;47.760;-122.022;2023-03-14T04:30:01;100914.42199999999;;;3.2;unknown
73422;BME280;61637;47.760;-122.022;2023-03-14T04:32:01;100914.42199999999;;;3.1;unknown
73422;BME280;61637;47.760;-122.022;2023-03-14T04:34:01;100914.42199999999;;;3.1;unknown
73422;BME280;61637;47.760;-122.022;2023-03-14T04:36:01;100914.42199999999;;;3.1;unknown
73422;BME280;61637;47.760;-122.022;2023-03-14T04:38:01;100914.42199999999;;;3.1;unknown
73422;BME280;61637;47.760;-122.022;2023-03-14T04:40:01;100914.42199999999;;;3.1;unknown
73422;BME280;61637;47.760;-122.022;2023-03-14T04:42:01;100914.42199999999;;;3.1;unknown
73422;BME280;61637;47.760;-122.022;2023-03-14T04:44:01;100914.42199999999;;;3.1;unknown
73422;BME280;61637;47.760;-122.022;2023-03-14T04:46:01;100914.42199999999;;;3.2;unknown
73422;BME280;61637;47.760;-122.022;2023-03-14T04:48:01;100914.42199999999;;;3.2;unknown
73422;BME280;61637;47.760;-122.022;2023-03-14T04:50:01;100914.42199999999;;;3.2;unknown
73422;BME280;61637;47.760;-122.022;2023-03-14T04:52:01;100914.42199999999;;;3.2;unknown
73422;BME280;61637;47.760;-122.022;2023-03-14T04:54:01;100914.42199999999;;;3.2;unknown
73422;BME280;61637;47.760;-122.022;2023-03-14T04:56:01;100914.42199999999;;;3.2;unknown
73422;BME280;61637;47.760;-122.022;2023-03-14T04:58:01;100914.42199999999;;;3.2;unknown
73422;BME280;61637;47.760;-122.022;2023-03-14T05:00:01;100914.42199999999;;;3.2;unknown
73422;BME280;61637;47.760;-122.022;2023-03-14T05:02:01;100914.42199999999;;;3.3;unknown
73422;BME280;61637;47.760;-122.022;2023-03-14T05:04:01;100914.42199999999;;;3.3;unknown
73422;BME280;61637;47.760;-122.022;2023-03-14T05:06:01;100914.42199999999;;;3.3;unknown
73422;BME280;61637;47.760;-122.022;2023-03-14T05:08:01;100914.42199999999;;;3.3;unknown
73422;BME280;61637;47.760;-122.022;2023-03-14T05:10:01;100914.42199999999;;;3.3;unknown
73422;BME280;61637;47.760;-122.022;2023-03-14T05:12:01;100914.42199999999;;;3.3;unknown
73422;BME280;61637;47.760;-122.022;2023-03-14T05:14:01;100914.42199999999;;;3.2;unknown
73422;BME280;61637;47.760;-122.022;2023-03-14T05:16:04;100914.42199999999;;;3.2;unknown
73422;BME280;61637;47.760;-122.022;2023-03-14T05:18:01;101253.06099999999;;;3.1;unknown
73422;BME280;61637;47.760;-122.022;2023-03-14T05:20:01;100914.42199999999;;;3.1;unknown
73422;BME280;61637;47.760;-122.022;2023-03-14T05:22:01;101253.06099999999;;;3.1;unknown
73422;BME280;61637;47.760;-122.022;2023-03-14T05:24:01;101253.06099999999;;;3.1;unknown
73422;BME280;61637;47.760;-122.022;2023-03-14T05:26:01;101253.06099999999;;;3.0;unknown
73422;BME280;61637;47.760;-122.022;2023-03-14T05:28:01;101253.06099999999;;;3.1;unknown
73422;BME280;61637;47.760;-122.022;2023-03-14T05:30:01;101253.06099999999;;;3.1;unknown
73422;BME280;61637;47.760;-122.022;2023-03-14T05:32:01;101253.06099999999;;;3.1;unknown
73422;BME280;61637;47.760;-122.022;2023-03-14T05:34:01;101253.06099999999;;;3.1;unknown
73422;BME280;61637;47.760;-122.022;2023-03-14T05:36:01;101253.06099999999;;;3.1;unknown
73422;BME280;61637;47.760;-122.022;2023-03-14T05:38:01;101253.06099999999;;;3.1;unknown
73422;BME280;61637;47.760;-122.022;2023-03-14T05:40:01;101253.06099999999;;;3.1;unknown
73422;BME280;61637;47.760;-122.022;2023-03-14T05:42:01;101253.06099999999;;;3.1;unknown
73422;BME280;61637;47.760;-122.022;2023-03-14T05:44:01;101253.06099999999;;;3.1;unknown
73422;BME280;61637;47.760;-122.022;2023-03-14T05:46:01;101253.06099999999;;;3.1;unknown
73422;BME280;61637;47.760;-122.022;2023-03-14T05:48:01;101253.06099999999;;;3.1;unknown
73422;BME280;61637;47.760;-122.022;2023-03-14T05:50:01;101253.06099999999;;;3.1;unknown
73422;BME280;61637;47.760;-122.022;2023-03-14T05:52:01;101253.06099999999;;;3.1;unknown
73422;BME280;61637;47.760;-122.022;2023-03-14T05:54:01;101253.06099999999;;;3.1;unknown
73422;BME280;61637;47.760;-122.022;2023-03-14T05:56:01;101253.06099999999;;;3.1;unknown
73422;BME280;61637;47.760;-122.022;2023-03-14T05:58:01;101253.06099999999;;;3.1;unknown
73422;BME280;61637;47.760;-122.022;2023-03-14T06:00:01;101253.06099999999;;;3.0;unknown
73422;BME280;61637;47.760;-122.022;2023-03-14T06:02:01;101253.06099999999;;;2.9;unknown
73422;BME280;61637;47.760;-122.022;2023-03-14T06:04:01;101253.06099999999;;;2.9;unknown
73422;BME280;61637;47.760;-122.022;2023-03-14T06:06:01;101253.06099999999;;;2.9;unknown
73422;BME280;61637;47.760;-122.022;2023-03-14T06:08:01;101253.06099999999;;;2.8;unknown
73422;BME280;61637;47.760;-122.022;2023-03-14T06:10:01;101253.06099999999;;;2.8;unknown
73422;BME280;61637;47.760;-122.022;2023-03-14T06:12:01;101253.06099999999;;;2.8;unknown
73422;BME280;61637;47.760;-122.022;2023-03-14T06:14:01;101253.06099999999;;;2.8;unknown
73422;BME280;61637;47.760;-122.022;2023-03-14T06:16:01;101253.06099999999;;;2.8;unknown
73422;BME280;61637;47.760;-122.022;2023-03-14T06:18:01;101253.06099999999;;;2.7;unknown
73422;BME280;61637;47.760;-122.022;2023-03-14T06:20:01;101253.06099999999;;;2.7;unknown
73422;BME280;61637;47.760;-122.022;2023-03-14T06:22:01;101253.06099999999;;;2.7;unknown
73422;BME280;61637;47.760;-122.022;2023-03-14T06:24:01;101253.06099999999;;;2.6;unknown
73422;BME280;61637;47.760;-122.022;2023-03-14T06:26:01;101253.06099999999;;;2.6;unknown
73422;BME280;61637;47.760;-122.022;2023-03-14T06:28:01;101253.06099999999;;;2.6;unknown
73422;BME280;61637;47.760;-122.022;2023-03-14T06:30:01;101253.06099999999;;;2.5;unknown
73422;BME280;61637;47.760;-122.022;2023-03-14T06:32:01;101253.06099999999;;;2.4;unknown
73422;BME280;61637;47.760;-122.022;2023-03-14T06:34:01;101253.06099999999;;;2.4;unknown
73422;BME280;61637;47.760;-122.022;2023-03-14T06:36:01;101253.06099999999;;;2.4;unknown
73422;BME280;61637;47.760;-122.022;2023-03-14T06:38:01;101253.06099999999;;;2.3;unknown
73422;BME280;61637;47.760;-122.022;2023-03-14T06:40:01;101253.06099999999;;;2.3;unknown
73422;BME280;61637;47.760;-122.022;2023-03-14T06:42:01;101253.06099999999;;;2.3;unknown
73422;BME280;61637;47.760;-122.022;2023-03-14T06:44:01;101253.06099999999;;;2.3;unknown
73422;BME280;61637;47.760;-122.022;2023-03-14T06:46:01;101253.06099999999;;;2.2;unknown
73422;BME280;61637;47.760;-122.022;2023-03-14T06:48:01;101253.06099999999;;;2.2;unknown
73422;BME280;61637;47.760;-122.022;2023-03-14T06:50:01;101253.06099999999;;;2.1;unknown
73422;BME280;61637;47.760;-122.022;2023-03-14T06:52:01;101253.06099999999;;;2.1;unknown
73422;BME280;61637;47.760;-122.022;2023-03-14T06:54:01;101253.06099999999;;;2.1;unknown
73422;BME280;61637;47.760;-122.022;2023-03-14T06:56:01;101253.06099999999;;;2.0;unknown
73422;BME280;61637;47.760;-122.022;2023-03-14T06:58:01;101253.06099999999;;;1.9;unknown
73422;BME280;61637;47.760;-122.022;2023-03-14T07:00:01;101253.06099999999;;;1.9;unknown
73422;BME280;61637;47.760;-122.022;2023-03-14T07:02:01;101253.06099999999;;;1.9;unknown
73422;BME280;61637;47.760;-122.022;2023-03-14T07:04:01;101253.06099999999;;;1.9;unknown
73422;BME280;61637;47.760;-122.022;2023-03-14T07:06:01;101253.06099999999;;;1.9;unknown
73422;BME280;61637;47.760;-122.022;2023-03-14T07:08:01;101253.06099999999;;;1.9;unknown
73422;BME280;61637;47.760;-122.022;2023-03-14T07:10:01;101253.06099999999;;;1.9;unknown
73422;BME280;61637;47.760;-122.022;2023-03-14T07:12:01;101253.06099999999;;;1.9;unknown
73422;BME280;61637;47.760;-122.022;2023-03-14T07:14:01;101253.06099999999;;;1.9;unknown
73422;BME280;61637;47.760;-122.022;2023-03-14T07:16:01;101253.06099999999;;;1.9;unknown
73422;BME280;61637;47.760;-122.022;2023-03-14T07:18:01;101253.06099999999;;;1.9;unknown
73422;BME280;61637;47.760;-122.022;2023-03-14T07:20:01;101253.06099999999;;;1.9;unknown
73422;BME280;61637;47.760;-122.022;2023-03-14T07:22:01;101253.06099999999;;;1.8;unknown
73422;BME280;61637;47.760;-122.022;2023-03-14T07:24:01;101253.06099999999;;;1.8;unknown
73422;BME280;61637;47.760;-122.022;2023-03-14T07:26:01;101253.06099999999;;;1.8;unknown
73422;BME280;61637;47.760;-122.022;2023-03-14T07:28:01;101253.06099999999;;;1.8;unknown
73422;BME280;61637;47.760;-122.022;2023-03-14T07:30:01;101253.06099999999;;;1.8;unknown
73422;BME280;61637;47.760;-122.022;2023-03-14T07:32:01;101253.06099999999;;;1.8;unknown
73422;BME280;61637;47.760;-122.022;2023-03-14T07:34:01;101253.06099999999;;;1.8;unknown
73422;BME280;61637;47.760;-122.022;2023-03-14T07:36:01;101253.06099999999;;;1.8;unknown
73422;BME280;61637;47.760;-122.022;2023-03-14T07:38:01;101253.06099999999;;;1.8;unknown
73422;BME280;61637;47.760;-122.022;2023-03-14T07:40:01;101253.06099999999;;;1.7;unknown
73422;BME280;61637;47.760;-122.022;2023-03-14T07:42:01;101253.06099999999;;;1.7;unknown
73422;BME280;61637;47.760;-122.022;2023-03-14T07:44:01;101253.06099999999;;;1.8;unknown
73422;BME280;61637;47.760;-122.022;2023-03-14T07:46:01;101253.06099999999;;;1.8;unknown
73422;BME280;61637;47.760;-122.022;2023-03-14T07:48:01;101253.06099999999;;;1.8;unknown
73422;BME280;61637;47.760;-122.022;2023-03-14T07:50:01;101253.06099999999;;;1.8;unknown
73422;BME280;61637;47.760;-122.022;2023-03-14T07:52:01;101253.06099999999;;;1.8;unknown
73422;BME280;61637;47.760;-122.022;2023-03-14T07:54:01;101253.06099999999;;;1.8;unknown
73422;BME280;61637;47.760;-122.022;2023-03-14T07:56:01;101253.06099999999;;;1.9;unknown
73422;BME280;61637;47.760;-122.022;2023-03-14T07:58:01;101253.06099999999;;;1.9;unknown
73422;BME280;61637;47.760;-122.022;2023-03-14T08:00:01;101253.06099999999;;;1.9;unknown
73422;BME280;61637;47.760;-122.022;2023-03-14T08:02:01;101253.06099999999;;;1.9;unknown
73422;BME280;61637;47.760;-122.022;2023-03-14T08:04:01;101253.06099999999;;;1.9;unknown
73422;BME280;61637;47.760;-122.022;2023-03-14T08:06:01;101253.06099999999;;;1.9;unknown
73422;BME280;61637;47.760;-122.022;2023-03-14T08:08:01;101253.06099999999;;;1.9;unknown
73422;BME280;61637;47.760;-122.022;2023-03-14T08:10:01;101253.06099999999;;;1.9;unknown
73422;BME280;61637;47.760;-122.022;2023-03-14T08:12:01;101253.06099999999;;;2.0;unknown
73422;BME280;61637;47.760;-122.022;2023-03-14T08:14:01;101253.06099999999;;;1.9;unknown
73422;BME280;61637;47.760;-122.022;2023-03-14T08:16:01;101253.06099999999;;;1.9;unknown
73422;BME280;61637;47.760;-122.022;2023-03-14T08:18:01;101253.06099999999;;;1.9;unknown
73422;BME280;61637;47.760;-122.022;2023-03-14T08:20:01;101253.06099999999;;;1.9;unknown
73422;BME280;61637;47.760;-122.022;2023-03-14T08:22:01;101253.06099999999;;;2.0;unknown
73422;BME280;61637;47.760;-122.022;2023-03-14T08:24:01;101253.06099999999;;;2.0;unknown
73422;BME280;61637;47.760;-122.022;2023-03-14T08:26:01;101253.06099999999;;;2.0;unknown
73422;BME280;61637;47.760;-122.022;2023-03-14T08:28:01;101253.06099999999;;;2.0;unknown
73422;BME280;61637;47.760;-122.022;2023-03-14T08:30:01;101253.06099999999;;;2.1;unknown
73422;BME280;61637;47.760;-122.022;2023-03-14T08:32:01;101253.06099999999;;;2.1;unknown
73422;BME280;61637;47.760;-122.022;2023-03-14T08:34:01;101253.06099999999;;;2.1;unknown
73422;BME280;61637;47.760;-122.022;2023-03-14T08:36:01;101253.06099999999;;;2.1;unknown
73422;BME280;61637;47.760;-122.022;2023-03-14T08:38:01;101253.06099999999;;;2.1;unknown
73422;BME280;61637;47.760;-122.022;2023-03-14T08:40:01;101253.06099999999;;;2.1;unknown
73422;BME280;61637;47.760;-122.022;2023-03-14T08:42:01;101253.06099999999;;;2.1;unknown
73422;BME280;61637;47.760;-122.022;2023-03-14T08:44:01;101253.06099999999;;;2.2;unknown
73422;BME280;61637;47.760;-122.022;2023-03-14T08:46:01;101253.06099999999;;;2.2;unknown
73422;BME280;61637;47.760;-122.022;2023-03-14T08:48:01;101253.06099999999;;;2.2;unknown
73422;BME280;61637;47.760;-122.022;2023-03-14T08:50:01;101253.06099999999;;;2.2;unknown
73422;BME280;61637;47.760;-122.022;2023-03-14T08:52:01;101253.06099999999;;;2.1;unknown
73422;BME280;61637;47.760;-122.022;2023-03-14T08:54:01;101253.06099999999;;;2.1;unknown
73422;BME280;61637;47.760;-122.022;2023-03-14T08:56:01;101253.06099999999;;;2.2;unknown
73422;BME280;61637;47.760;-122.022;2023-03-14T08:58:01;101253.06099999999;;;2.1;unknown
73422;BME280;61637;47.760;-122.022;2023-03-14T09:00:02;101253.06099999999;;;2.1;unknown
73422;BME280;61637;47.760;-122.022;2023-03-14T09:02:01;101253.06099999999;;;2.1;unknown